sensor_id;sensor_type;location;lat;lon;timestamp;P1;durP1;ratioP1;P2;durP2;ratioP2
66342;SDS011;53144;51.524;5.080;2023-03-01T00:01:49;10.20;;;5.28;;
66342;SDS011;53144;51.524;5.080;2023-03-01T00:04:15;7.50;;;5.22;;
66342;SDS011;53144;51.524;5.080;2023-03-01T00:06:42;8.52;;;5.40;;
66342;SDS011;53144;51.524;5.080;2023-03-01T00:09:11;11.10;;;5.57;;
66342;SDS011;53144;51.524;5.080;2023-03-01T00:11:37;9.60;;;5.50;;
66342;SDS011;53144;51.524;5.080;2023-03-01T00:14:02;7.78;;;5.45;;
66342;SDS011;53144;51.524;5.080;2023-03-01T00:16:38;7.28;;;5.28;;
66342;SDS011;53144;51.524;5.080;2023-03-01T00:19:05;8.25;;;5.20;;
66342;SDS011;53144;51.524;5.080;2023-03-01T00:21:36;10.70;;;5.30;;
66342;SDS011;53144;51.524;5.080;2023-03-01T00:24:01;8.03;;;5.33;;
66342;SDS011;53144;51.524;5.080;2023-03-01T00:26:27;7.03;;;5.32;;
66342;SDS011;53144;51.524;5.080;2023-03-01T00:28:53;10.65;;;5.32;;
66342;SDS011;53144;51.524;5.080;2023-03-01T00:31:21;8.13;;;5.38;;
66342;SDS011;53144;51.524;5.080;2023-03-01T00:33:48;7.78;;;5.05;;
66342;SDS011;53144;51.524;5.080;2023-03-01T00:36:18;8.25;;;5.45;;
66342;SDS011;53144;51.524;5.080;2023-03-01T00:38:45;9.75;;;5.22;;
66342;SDS011;53144;51.524;5.080;2023-03-01T00:41:14;8.25;;;5.72;;
66342;SDS011;53144;51.524;5.080;2023-03-01T00:43:41;9.70;;;5.07;;
66342;SDS011;53144;51.524;5.080;2023-03-01T00:46:08;11.38;;;5.47;;
66342;SDS011;53144;51.524;5.080;2023-03-01T00:48:36;9.57;;;5.25;;
66342;SDS011;53144;51.524;5.080;2023-03-01T00:53:35;10.27;;;5.88;;
66342;SDS011;53144;51.524;5.080;2023-03-01T00:56:01;8.38;;;5.78;;
66342;SDS011;53144;51.524;5.080;2023-03-01T00:58:28;8.05;;;5.40;;
66342;SDS011;53144;51.524;5.080;2023-03-01T01:00:53;8.85;;;5.22;;
66342;SDS011;53144;51.524;5.080;2023-03-01T01:03:19;11.02;;;5.78;;
66342;SDS011;53144;51.524;5.080;2023-03-01T01:05:45;10.93;;;5.47;;
66342;SDS011;53144;51.524;5.080;2023-03-01T01:08:10;7.83;;;5.40;;
66342;SDS011;53144;51.524;5.080;2023-03-01T01:10:36;9.38;;;5.18;;
66342;SDS011;53144;51.524;5.080;2023-03-01T01:13:01;7.03;;;5.72;;
66342;SDS011;53144;51.524;5.080;2023-03-01T01:15:27;9.80;;;5.03;;
66342;SDS011;53144;51.524;5.080;2023-03-01T01:17:53;9.32;;;5.45;;
66342;SDS011;53144;51.524;5.080;2023-03-01T01:20:18;9.32;;;5.75;;
66342;SDS011;53144;51.524;5.080;2023-03-01T01:22:43;6.82;;;5.05;;
66342;SDS011;53144;51.524;5.080;2023-03-01T01:25:09;8.07;;;5.23;;
66342;SDS011;53144;51.524;5.080;2023-03-01T01:30:00;6.72;;;4.43;;
66342;SDS011;53144;51.524;5.080;2023-03-01T01:32:26;8.43;;;5.30;;
66342;SDS011;53144;51.524;5.080;2023-03-01T01:34:51;10.53;;;5.73;;
66342;SDS011;53144;51.524;5.080;2023-03-01T01:37:17;8.77;;;5.57;;
66342;SDS011;53144;51.524;5.080;2023-03-01T01:39:42;7.67;;;5.33;;
66342;SDS011;53144;51.524;5.080;2023-03-01T01:42:12;8.47;;;4.90;;
66342;SDS011;53144;51.524;5.080;2023-03-01T01:44:45;9.25;;;5.35;;
66342;SDS011;53144;51.524;5.080;2023-03-01T01:47:16;8.13;;;5.40;;
66342;SDS011;53144;51.524;5.080;2023-03-01T01:49:46;9.45;;;5.28;;
66342;SDS011;53144;51.524;5.080;2023-03-01T01:52:31;8.20;;;5.30;;
66342;SDS011;53144;51.524;5.080;2023-03-01T01:55:08;9.18;;;5.47;;
66342;SDS011;53144;51.524;5.080;2023-03-01T01:57:42;7.63;;;5.35;;
66342;SDS011;53144;51.524;5.080;2023-03-01T02:00:12;10.63;;;5.43;;
66342;SDS011;53144;51.524;5.080;2023-03-01T02:02:38;10.00;;;5.68;;
66342;SDS011;53144;51.524;5.080;2023-03-01T02:07:38;7.85;;;5.10;;
66342;SDS011;53144;51.524;5.080;2023-03-01T02:10:05;9.93;;;5.30;;
66342;SDS011;53144;51.524;5.080;2023-03-01T02:12:31;8.38;;;4.82;;
66342;SDS011;53144;51.524;5.080;2023-03-01T02:14:57;8.95;;;5.13;;
66342;SDS011;53144;51.524;5.080;2023-03-01T02:17:22;8.53;;;5.13;;
66342;SDS011;53144;51.524;5.080;2023-03-01T02:19:52;8.50;;;5.00;;
66342;SDS011;53144;51.524;5.080;2023-03-01T02:22:28;9.75;;;5.43;;
66342;SDS011;53144;51.524;5.080;2023-03-01T02:30:21;6.38;;;4.32;;
66342;SDS011;53144;51.524;5.080;2023-03-01T02:32:47;7.05;;;5.35;;
66342;SDS011;53144;51.524;5.080;2023-03-01T02:35:14;7.22;;;5.28;;
66342;SDS011;53144;51.524;5.080;2023-03-01T02:37:43;7.43;;;5.07;;
66342;SDS011;53144;51.524;5.080;2023-03-01T02:40:14;6.00;;;4.90;;
66342;SDS011;53144;51.524;5.080;2023-03-01T02:42:48;8.40;;;5.85;;
66342;SDS011;53144;51.524;5.080;2023-03-01T02:45:16;7.75;;;5.18;;
66342;SDS011;53144;51.524;5.080;2023-03-01T02:47:42;10.07;;;5.57;;
66342;SDS011;53144;51.524;5.080;2023-03-01T02:50:19;7.47;;;4.97;;
66342;SDS011;53144;51.524;5.080;2023-03-01T02:52:57;7.65;;;5.60;;
66342;SDS011;53144;51.524;5.080;2023-03-01T02:55:47;9.40;;;5.72;;
66342;SDS011;53144;51.524;5.080;2023-03-01T02:58:13;9.10;;;4.90;;
66342;SDS011;53144;51.524;5.080;2023-03-01T03:00:40;8.63;;;5.93;;
66342;SDS011;53144;51.524;5.080;2023-03-01T03:03:10;8.77;;;5.90;;
66342;SDS011;53144;51.524;5.080;2023-03-01T03:05:41;9.00;;;5.03;;
66342;SDS011;53144;51.524;5.080;2023-03-01T03:08:07;9.85;;;5.75;;
66342;SDS011;53144;51.524;5.080;2023-03-01T03:10:34;10.70;;;6.53;;
66342;SDS011;53144;51.524;5.080;2023-03-01T03:13:05;7.75;;;5.05;;
66342;SDS011;53144;51.524;5.080;2023-03-01T03:15:32;7.88;;;5.47;;
66342;SDS011;53144;51.524;5.080;2023-03-01T03:18:01;8.80;;;6.22;;
66342;SDS011;53144;51.524;5.080;2023-03-01T03:20:28;10.40;;;5.88;;
66342;SDS011;53144;51.524;5.080;2023-03-01T03:22:55;9.48;;;5.57;;
66342;SDS011;53144;51.524;5.080;2023-03-01T03:25:22;9.32;;;5.47;;
66342;SDS011;53144;51.524;5.080;2023-03-01T03:27:48;10.57;;;5.03;;
66342;SDS011;53144;51.524;5.080;2023-03-01T03:30:15;9.68;;;6.47;;
66342;SDS011;53144;51.524;5.080;2023-03-01T03:32:43;11.18;;;5.97;;
66342;SDS011;53144;51.524;5.080;2023-03-01T03:35:17;11.48;;;5.93;;
66342;SDS011;53144;51.524;5.080;2023-03-01T03:38:11;10.88;;;5.75;;
66342;SDS011;53144;51.524;5.080;2023-03-01T03:40:51;6.25;;;4.43;;
66342;SDS011;53144;51.524;5.080;2023-03-01T03:43:27;9.98;;;5.55;;
66342;SDS011;53144;51.524;5.080;2023-03-01T03:45:53;9.68;;;5.68;;
66342;SDS011;53144;51.524;5.080;2023-03-01T03:48:19;7.63;;;5.30;;
66342;SDS011;53144;51.524;5.080;2023-03-01T03:50:49;10.85;;;5.57;;
66342;SDS011;53144;51.524;5.080;2023-03-01T03:53:15;8.55;;;5.80;;
66342;SDS011;53144;51.524;5.080;2023-03-01T03:55:41;8.80;;;6.00;;
66342;SDS011;53144;51.524;5.080;2023-03-01T03:58:07;10.00;;;6.03;;
66342;SDS011;53144;51.524;5.080;2023-03-01T04:00:38;7.60;;;5.97;;
66342;SDS011;53144;51.524;5.080;2023-03-01T04:03:06;13.35;;;5.93;;
66342;SDS011;53144;51.524;5.080;2023-03-01T04:07:58;7.95;;;5.85;;
66342;SDS011;53144;51.524;5.080;2023-03-01T04:10:27;9.20;;;6.72;;
66342;SDS011;53144;51.524;5.080;2023-03-01T04:12:56;13.02;;;5.80;;
66342;SDS011;53144;51.524;5.080;2023-03-01T04:15:22;12.40;;;6.32;;
66342;SDS011;53144;51.524;5.080;2023-03-01T04:17:49;9.23;;;5.70;;
66342;SDS011;53144;51.524;5.080;2023-03-01T04:20:18;9.40;;;6.75;;
66342;SDS011;53144;51.524;5.080;2023-03-01T04:22:52;8.07;;;5.80;;
66342;SDS011;53144;51.524;5.080;2023-03-01T04:25:22;10.13;;;5.78;;
66342;SDS011;53144;51.524;5.080;2023-03-01T04:27:48;8.35;;;5.85;;
66342;SDS011;53144;51.524;5.080;2023-03-01T04:30:13;9.25;;;5.80;;
66342;SDS011;53144;51.524;5.080;2023-03-01T04:32:39;12.00;;;7.07;;
66342;SDS011;53144;51.524;5.080;2023-03-01T04:35:05;8.98;;;6.15;;
66342;SDS011;53144;51.524;5.080;2023-03-01T04:37:30;8.73;;;6.15;;
66342;SDS011;53144;51.524;5.080;2023-03-01T04:39:56;9.68;;;5.50;;
66342;SDS011;53144;51.524;5.080;2023-03-01T04:42:21;8.60;;;6.20;;
66342;SDS011;53144;51.524;5.080;2023-03-01T04:44:46;10.90;;;6.30;;
66342;SDS011;53144;51.524;5.080;2023-03-01T04:47:12;9.53;;;5.77;;
66342;SDS011;53144;51.524;5.080;2023-03-01T04:49:38;9.48;;;5.97;;
66342;SDS011;53144;51.524;5.080;2023-03-01T04:52:03;8.48;;;5.18;;
66342;SDS011;53144;51.524;5.080;2023-03-01T04:54:29;9.68;;;6.00;;
66342;SDS011;53144;51.524;5.080;2023-03-01T04:56:58;9.55;;;6.03;;
66342;SDS011;53144;51.524;5.080;2023-03-01T04:59:24;8.75;;;5.93;;
66342;SDS011;53144;51.524;5.080;2023-03-01T05:01:51;8.65;;;5.50;;
66342;SDS011;53144;51.524;5.080;2023-03-01T05:04:17;10.88;;;5.47;;
66342;SDS011;53144;51.524;5.080;2023-03-01T05:06:42;7.43;;;5.75;;
66342;SDS011;53144;51.524;5.080;2023-03-01T05:09:08;6.32;;;5.38;;
66342;SDS011;53144;51.524;5.080;2023-03-01T05:11:34;7.75;;;5.28;;
66342;SDS011;53144;51.524;5.080;2023-03-01T05:14:07;9.80;;;5.68;;
66342;SDS011;53144;51.524;5.080;2023-03-01T05:16:33;8.05;;;4.90;;
66342;SDS011;53144;51.524;5.080;2023-03-01T05:19:01;8.93;;;5.43;;
66342;SDS011;53144;51.524;5.080;2023-03-01T05:21:36;9.10;;;5.30;;
66342;SDS011;53144;51.524;5.080;2023-03-01T05:24:22;8.13;;;5.77;;
66342;SDS011;53144;51.524;5.080;2023-03-01T05:26:48;9.55;;;5.65;;
66342;SDS011;53144;51.524;5.080;2023-03-01T05:29:14;8.00;;;5.28;;
66342;SDS011;53144;51.524;5.080;2023-03-01T05:31:39;8.88;;;5.63;;
66342;SDS011;53144;51.524;5.080;2023-03-01T05:34:04;8.53;;;4.80;;
66342;SDS011;53144;51.524;5.080;2023-03-01T05:36:31;10.85;;;5.63;;
66342;SDS011;53144;51.524;5.080;2023-03-01T05:38:56;15.77;;;5.35;;
66342;SDS011;53144;51.524;5.080;2023-03-01T05:41:22;9.00;;;5.53;;
66342;SDS011;53144;51.524;5.080;2023-03-01T05:43:47;8.65;;;5.80;;
66342;SDS011;53144;51.524;5.080;2023-03-01T05:46:13;9.17;;;5.43;;
66342;SDS011;53144;51.524;5.080;2023-03-01T05:48:40;11.02;;;5.57;;
66342;SDS011;53144;51.524;5.080;2023-03-01T05:51:05;10.00;;;5.93;;
66342;SDS011;53144;51.524;5.080;2023-03-01T05:53:31;7.20;;;5.43;;
66342;SDS011;53144;51.524;5.080;2023-03-01T05:55:56;8.30;;;5.17;;
66342;SDS011;53144;51.524;5.080;2023-03-01T05:58:21;10.43;;;5.97;;
66342;SDS011;53144;51.524;5.080;2023-03-01T06:00:48;8.40;;;5.95;;
66342;SDS011;53144;51.524;5.080;2023-03-01T06:03:14;8.32;;;5.90;;
66342;SDS011;53144;51.524;5.080;2023-03-01T06:05:43;8.32;;;5.80;;
66342;SDS011;53144;51.524;5.080;2023-03-01T06:08:09;9.63;;;5.65;;
66342;SDS011;53144;51.524;5.080;2023-03-01T06:10:36;8.05;;;5.35;;
66342;SDS011;53144;51.524;5.080;2023-03-01T06:13:01;11.10;;;6.20;;
66342;SDS011;53144;51.524;5.080;2023-03-01T06:15:27;8.40;;;5.80;;
66342;SDS011;53144;51.524;5.080;2023-03-01T06:17:53;7.75;;;5.20;;
66342;SDS011;53144;51.524;5.080;2023-03-01T06:20:22;9.63;;;5.30;;
66342;SDS011;53144;51.524;5.080;2023-03-01T06:22:49;10.65;;;6.10;;
66342;SDS011;53144;51.524;5.080;2023-03-01T06:25:19;7.80;;;5.45;;
66342;SDS011;53144;51.524;5.080;2023-03-01T06:27:46;8.63;;;5.95;;
66342;SDS011;53144;51.524;5.080;2023-03-01T06:30:14;8.48;;;6.00;;
66342;SDS011;53144;51.524;5.080;2023-03-01T06:32:42;7.97;;;5.47;;
66342;SDS011;53144;51.524;5.080;2023-03-01T06:35:08;10.82;;;6.00;;
66342;SDS011;53144;51.524;5.080;2023-03-01T06:37:35;11.07;;;5.95;;
66342;SDS011;53144;51.524;5.080;2023-03-01T06:40:01;9.45;;;5.53;;
66342;SDS011;53144;51.524;5.080;2023-03-01T06:42:33;14.35;;;5.85;;
66342;SDS011;53144;51.524;5.080;2023-03-01T06:44:59;8.95;;;5.93;;
66342;SDS011;53144;51.524;5.080;2023-03-01T06:47:25;9.37;;;5.57;;
66342;SDS011;53144;51.524;5.080;2023-03-01T06:49:50;10.88;;;5.88;;
66342;SDS011;53144;51.524;5.080;2023-03-01T06:52:16;9.67;;;5.97;;
66342;SDS011;53144;51.524;5.080;2023-03-01T06:54:44;10.40;;;5.93;;
66342;SDS011;53144;51.524;5.080;2023-03-01T06:57:09;8.60;;;5.55;;
66342;SDS011;53144;51.524;5.080;2023-03-01T06:59:35;9.07;;;5.33;;
66342;SDS011;53144;51.524;5.080;2023-03-01T07:02:00;11.93;;;5.63;;
66342;SDS011;53144;51.524;5.080;2023-03-01T07:04:25;10.30;;;6.28;;
66342;SDS011;53144;51.524;5.080;2023-03-01T07:06:53;8.95;;;5.85;;
66342;SDS011;53144;51.524;5.080;2023-03-01T07:09:21;11.60;;;5.97;;
66342;SDS011;53144;51.524;5.080;2023-03-01T07:11:47;10.00;;;6.45;;
66342;SDS011;53144;51.524;5.080;2023-03-01T07:14:14;12.63;;;6.30;;
66342;SDS011;53144;51.524;5.080;2023-03-01T07:16:44;9.38;;;6.50;;
66342;SDS011;53144;51.524;5.080;2023-03-01T07:19:10;10.00;;;6.20;;
66342;SDS011;53144;51.524;5.080;2023-03-01T07:21:36;11.13;;;6.00;;
66342;SDS011;53144;51.524;5.080;2023-03-01T07:24:03;8.68;;;5.90;;
66342;SDS011;53144;51.524;5.080;2023-03-01T07:26:32;9.10;;;6.00;;
66342;SDS011;53144;51.524;5.080;2023-03-01T07:29:01;7.57;;;5.37;;
66342;SDS011;53144;51.524;5.080;2023-03-01T07:31:30;8.20;;;5.70;;
66342;SDS011;53144;51.524;5.080;2023-03-01T07:33:56;9.52;;;5.57;;
66342;SDS011;53144;51.524;5.080;2023-03-01T07:36:22;8.10;;;5.22;;
66342;SDS011;53144;51.524;5.080;2023-03-01T07:38:48;9.60;;;5.97;;
66342;SDS011;53144;51.524;5.080;2023-03-01T07:41:13;6.55;;;4.28;;
66342;SDS011;53144;51.524;5.080;2023-03-01T07:43:39;8.65;;;5.72;;
66342;SDS011;53144;51.524;5.080;2023-03-01T07:46:05;11.65;;;5.50;;
66342;SDS011;53144;51.524;5.080;2023-03-01T07:48:31;8.02;;;5.55;;
66342;SDS011;53144;51.524;5.080;2023-03-01T07:50:58;8.98;;;5.47;;
66342;SDS011;53144;51.524;5.080;2023-03-01T07:53:24;11.35;;;5.57;;
66342;SDS011;53144;51.524;5.080;2023-03-01T07:55:50;9.57;;;5.38;;
66342;SDS011;53144;51.524;5.080;2023-03-01T07:58:24;9.25;;;5.45;;
66342;SDS011;53144;51.524;5.080;2023-03-01T08:00:49;7.23;;;5.37;;
66342;SDS011;53144;51.524;5.080;2023-03-01T08:03:15;9.33;;;5.73;;
66342;SDS011;53144;51.524;5.080;2023-03-01T08:05:43;8.52;;;5.35;;
66342;SDS011;53144;51.524;5.080;2023-03-01T08:08:08;8.97;;;6.03;;
66342;SDS011;53144;51.524;5.080;2023-03-01T08:10:34;11.33;;;5.50;;
66342;SDS011;53144;51.524;5.080;2023-03-01T08:13:00;12.65;;;5.85;;
66342;SDS011;53144;51.524;5.080;2023-03-01T08:15:26;8.10;;;5.40;;
66342;SDS011;53144;51.524;5.080;2023-03-01T08:17:51;9.10;;;5.97;;
66342;SDS011;53144;51.524;5.080;2023-03-01T08:20:16;10.87;;;4.50;;
66342;SDS011;53144;51.524;5.080;2023-03-01T08:22:42;7.57;;;5.77;;
66342;SDS011;53144;51.524;5.080;2023-03-01T08:25:08;11.10;;;4.83;;
66342;SDS011;53144;51.524;5.080;2023-03-01T08:27:33;8.30;;;4.78;;
66342;SDS011;53144;51.524;5.080;2023-03-01T08:29:59;7.40;;;5.03;;
66342;SDS011;53144;51.524;5.080;2023-03-01T08:32:24;7.87;;;5.50;;
66342;SDS011;53144;51.524;5.080;2023-03-01T08:34:49;10.70;;;5.17;;
66342;SDS011;53144;51.524;5.080;2023-03-01T08:37:15;8.43;;;5.40;;
66342;SDS011;53144;51.524;5.080;2023-03-01T08:39:40;8.07;;;5.25;;
66342;SDS011;53144;51.524;5.080;2023-03-01T08:42:06;9.57;;;5.80;;
66342;SDS011;53144;51.524;5.080;2023-03-01T08:44:31;8.60;;;5.40;;
66342;SDS011;53144;51.524;5.080;2023-03-01T08:46:57;6.57;;;4.85;;
66342;SDS011;53144;51.524;5.080;2023-03-01T08:49:23;9.90;;;5.20;;
66342;SDS011;53144;51.524;5.080;2023-03-01T08:51:48;6.90;;;4.88;;
66342;SDS011;53144;51.524;5.080;2023-03-01T08:54:15;8.68;;;5.13;;
66342;SDS011;53144;51.524;5.080;2023-03-01T08:56:43;6.90;;;4.45;;
66342;SDS011;53144;51.524;5.080;2023-03-01T08:59:09;6.28;;;4.40;;
66342;SDS011;53144;51.524;5.080;2023-03-01T09:01:36;7.90;;;4.57;;
66342;SDS011;53144;51.524;5.080;2023-03-01T09:04:02;7.68;;;5.40;;
66342;SDS011;53144;51.524;5.080;2023-03-01T09:06:29;6.97;;;4.88;;
66342;SDS011;53144;51.524;5.080;2023-03-01T09:08:56;7.25;;;5.13;;
66342;SDS011;53144;51.524;5.080;2023-03-01T09:11:28;7.20;;;4.33;;
66342;SDS011;53144;51.524;5.080;2023-03-01T09:13:54;7.53;;;4.60;;
66342;SDS011;53144;51.524;5.080;2023-03-01T09:16:20;7.70;;;5.10;;
66342;SDS011;53144;51.524;5.080;2023-03-01T09:18:50;8.10;;;4.70;;
66342;SDS011;53144;51.524;5.080;2023-03-01T09:21:18;6.53;;;4.10;;
66342;SDS011;53144;51.524;5.080;2023-03-01T09:23:46;6.97;;;4.38;;
66342;SDS011;53144;51.524;5.080;2023-03-01T09:26:18;8.27;;;4.40;;
66342;SDS011;53144;51.524;5.080;2023-03-01T09:28:46;4.95;;;3.65;;
66342;SDS011;53144;51.524;5.080;2023-03-01T09:33:39;6.13;;;3.88;;
66342;SDS011;53144;51.524;5.080;2023-03-01T09:36:06;9.77;;;3.55;;
66342;SDS011;53144;51.524;5.080;2023-03-01T09:38:35;5.88;;;4.57;;
66342;SDS011;53144;51.524;5.080;2023-03-01T09:41:00;8.32;;;4.20;;
66342;SDS011;53144;51.524;5.080;2023-03-01T09:43:29;6.45;;;4.25;;
66342;SDS011;53144;51.524;5.080;2023-03-01T09:46:06;5.30;;;4.03;;
66342;SDS011;53144;51.524;5.080;2023-03-01T09:48:41;6.97;;;4.45;;
66342;SDS011;53144;51.524;5.080;2023-03-01T09:51:12;7.95;;;4.88;;
66342;SDS011;53144;51.524;5.080;2023-03-01T09:53:43;5.65;;;4.10;;
66342;SDS011;53144;51.524;5.080;2023-03-01T09:58:54;8.07;;;4.75;;
66342;SDS011;53144;51.524;5.080;2023-03-01T10:01:30;7.30;;;4.47;;
66342;SDS011;53144;51.524;5.080;2023-03-01T10:09:37;6.45;;;4.38;;
66342;SDS011;53144;51.524;5.080;2023-03-01T10:12:12;8.70;;;4.55;;
66342;SDS011;53144;51.524;5.080;2023-03-01T10:17:39;5.88;;;4.32;;
66342;SDS011;53144;51.524;5.080;2023-03-01T10:20:20;4.20;;;3.28;;
66342;SDS011;53144;51.524;5.080;2023-03-01T10:22:48;6.22;;;4.22;;
66342;SDS011;53144;51.524;5.080;2023-03-01T10:30:52;7.38;;;4.40;;
66342;SDS011;53144;51.524;5.080;2023-03-01T10:33:29;7.72;;;4.45;;
66342;SDS011;53144;51.524;5.080;2023-03-01T10:35:58;6.22;;;3.95;;
66342;SDS011;53144;51.524;5.080;2023-03-01T10:38:23;6.22;;;4.55;;
66342;SDS011;53144;51.524;5.080;2023-03-01T10:40:53;8.50;;;4.57;;
66342;SDS011;53144;51.524;5.080;2023-03-01T10:43:24;6.57;;;4.80;;
66342;SDS011;53144;51.524;5.080;2023-03-01T10:45:51;7.05;;;4.20;;
66342;SDS011;53144;51.524;5.080;2023-03-01T10:48:18;8.68;;;4.80;;
66342;SDS011;53144;51.524;5.080;2023-03-01T10:51:04;7.78;;;4.28;;
66342;SDS011;53144;51.524;5.080;2023-03-01T10:53:39;6.88;;;4.60;;
66342;SDS011;53144;51.524;5.080;2023-03-01T10:58:34;6.40;;;4.28;;
66342;SDS011;53144;51.524;5.080;2023-03-01T11:03:42;6.53;;;4.68;;
66342;SDS011;53144;51.524;5.080;2023-03-01T11:08:34;6.07;;;4.45;;
66342;SDS011;53144;51.524;5.080;2023-03-01T11:14:01;6.15;;;4.30;;
66342;SDS011;53144;51.524;5.080;2023-03-01T11:16:40;7.93;;;4.30;;
66342;SDS011;53144;51.524;5.080;2023-03-01T11:24:01;7.70;;;4.45;;
66342;SDS011;53144;51.524;5.080;2023-03-01T11:26:29;6.68;;;4.22;;
66342;SDS011;53144;51.524;5.080;2023-03-01T11:28:58;6.43;;;4.32;;
66342;SDS011;53144;51.524;5.080;2023-03-01T11:31:28;5.63;;;4.07;;
66342;SDS011;53144;51.524;5.080;2023-03-01T11:33:57;6.40;;;4.63;;
66342;SDS011;53144;51.524;5.080;2023-03-01T11:39:20;7.13;;;4.43;;
66342;SDS011;53144;51.524;5.080;2023-03-01T11:44:56;6.05;;;4.05;;
66342;SDS011;53144;51.524;5.080;2023-03-01T11:47:39;7.53;;;4.28;;
66342;SDS011;53144;51.524;5.080;2023-03-01T11:50:28;6.15;;;4.63;;
66342;SDS011;53144;51.524;5.080;2023-03-01T11:53:16;6.28;;;3.42;;
66342;SDS011;53144;51.524;5.080;2023-03-01T12:19:00;5.78;;;4.18;;
66342;SDS011;53144;51.524;5.080;2023-03-01T12:27:10;6.13;;;4.68;;
66342;SDS011;53144;51.524;5.080;2023-03-01T12:32:43;6.50;;;4.72;;
66342;SDS011;53144;51.524;5.080;2023-03-01T12:37:56;6.68;;;4.90;;
66342;SDS011;53144;51.524;5.080;2023-03-01T12:40:30;8.32;;;4.65;;
66342;SDS011;53144;51.524;5.080;2023-03-01T12:51:07;7.40;;;4.85;;
66342;SDS011;53144;51.524;5.080;2023-03-01T12:53:40;5.45;;;4.13;;
66342;SDS011;53144;51.524;5.080;2023-03-01T12:56:09;7.90;;;3.95;;
66342;SDS011;53144;51.524;5.080;2023-03-01T13:04:17;5.75;;;4.78;;
66342;SDS011;53144;51.524;5.080;2023-03-01T13:07:14;7.78;;;4.32;;
66342;SDS011;53144;51.524;5.080;2023-03-01T13:17:48;9.23;;;5.22;;
66342;SDS011;53144;51.524;5.080;2023-03-01T13:20:19;5.47;;;4.40;;
66342;SDS011;53144;51.524;5.080;2023-03-01T13:22:47;5.57;;;4.28;;
66342;SDS011;53144;51.524;5.080;2023-03-01T13:25:25;6.70;;;4.60;;
66342;SDS011;53144;51.524;5.080;2023-03-01T13:27:51;8.63;;;4.93;;
66342;SDS011;53144;51.524;5.080;2023-03-01T13:30:55;5.30;;;4.47;;
66342;SDS011;53144;51.524;5.080;2023-03-01T13:35:52;7.28;;;4.88;;
66342;SDS011;53144;51.524;5.080;2023-03-01T13:41:03;5.53;;;3.97;;
66342;SDS011;53144;51.524;5.080;2023-03-01T13:43:32;7.18;;;4.60;;
66342;SDS011;53144;51.524;5.080;2023-03-01T13:46:02;6.03;;;4.45;;
66342;SDS011;53144;51.524;5.080;2023-03-01T13:48:34;5.15;;;4.28;;
66342;SDS011;53144;51.524;5.080;2023-03-01T13:51:10;5.90;;;4.70;;
66342;SDS011;53144;51.524;5.080;2023-03-01T13:53:39;6.72;;;4.53;;
66342;SDS011;53144;51.524;5.080;2023-03-01T13:56:12;5.57;;;4.70;;
66342;SDS011;53144;51.524;5.080;2023-03-01T13:58:51;5.63;;;4.38;;
66342;SDS011;53144;51.524;5.080;2023-03-01T14:01:26;7.18;;;5.28;;
66342;SDS011;53144;51.524;5.080;2023-03-01T14:03:54;7.32;;;4.55;;
66342;SDS011;53144;51.524;5.080;2023-03-01T14:06:24;4.53;;;3.97;;
66342;SDS011;53144;51.524;5.080;2023-03-01T14:08:59;5.45;;;4.50;;
66342;SDS011;53144;51.524;5.080;2023-03-01T14:19:30;7.07;;;4.63;;
66342;SDS011;53144;51.524;5.080;2023-03-01T14:22:02;11.63;;;5.30;;
66342;SDS011;53144;51.524;5.080;2023-03-01T14:24:38;8.93;;;5.85;;
66342;SDS011;53144;51.524;5.080;2023-03-01T14:27:12;7.65;;;4.90;;
66342;SDS011;53144;51.524;5.080;2023-03-01T14:29:39;6.63;;;4.93;;
66342;SDS011;53144;51.524;5.080;2023-03-01T14:34:48;8.25;;;4.80;;
66342;SDS011;53144;51.524;5.080;2023-03-01T14:39:51;8.30;;;4.70;;
66342;SDS011;53144;51.524;5.080;2023-03-01T14:42:17;6.25;;;4.47;;
66342;SDS011;53144;51.524;5.080;2023-03-01T14:44:49;8.68;;;4.90;;
66342;SDS011;53144;51.524;5.080;2023-03-01T14:49:52;6.82;;;4.80;;
66342;SDS011;53144;51.524;5.080;2023-03-01T14:52:25;7.40;;;4.72;;
66342;SDS011;53144;51.524;5.080;2023-03-01T14:55:02;5.95;;;4.68;;
66342;SDS011;53144;51.524;5.080;2023-03-01T14:57:30;8.02;;;5.15;;
66342;SDS011;53144;51.524;5.080;2023-03-01T14:59:59;9.77;;;4.70;;
66342;SDS011;53144;51.524;5.080;2023-03-01T15:02:30;6.38;;;4.65;;
66342;SDS011;53144;51.524;5.080;2023-03-01T15:04:58;6.32;;;4.35;;
66342;SDS011;53144;51.524;5.080;2023-03-01T15:07:31;6.63;;;4.88;;
66342;SDS011;53144;51.524;5.080;2023-03-01T15:10:00;7.43;;;5.30;;
66342;SDS011;53144;51.524;5.080;2023-03-01T15:14:54;6.60;;;4.60;;
66342;SDS011;53144;51.524;5.080;2023-03-01T15:19:57;7.35;;;5.07;;
66342;SDS011;53144;51.524;5.080;2023-03-01T15:22:24;6.63;;;4.85;;
66342;SDS011;53144;51.524;5.080;2023-03-01T15:24:51;7.68;;;4.43;;
66342;SDS011;53144;51.524;5.080;2023-03-01T15:27:19;6.32;;;4.95;;
66342;SDS011;53144;51.524;5.080;2023-03-01T15:29:57;7.05;;;4.93;;
66342;SDS011;53144;51.524;5.080;2023-03-01T15:32:32;6.55;;;4.80;;
66342;SDS011;53144;51.524;5.080;2023-03-01T15:35:00;7.68;;;5.15;;
66342;SDS011;53144;51.524;5.080;2023-03-01T15:37:49;6.57;;;5.17;;
66342;SDS011;53144;51.524;5.080;2023-03-01T15:40:25;7.15;;;5.20;;
66342;SDS011;53144;51.524;5.080;2023-03-01T15:45:24;8.48;;;4.80;;
66342;SDS011;53144;51.524;5.080;2023-03-01T15:48:05;7.30;;;4.97;;
66342;SDS011;53144;51.524;5.080;2023-03-01T15:50:42;8.02;;;4.80;;
66342;SDS011;53144;51.524;5.080;2023-03-01T15:53:12;8.27;;;4.38;;
66342;SDS011;53144;51.524;5.080;2023-03-01T15:55:40;7.32;;;4.97;;
66342;SDS011;53144;51.524;5.080;2023-03-01T15:58:06;7.40;;;5.10;;
66342;SDS011;53144;51.524;5.080;2023-03-01T16:00:37;7.18;;;5.18;;
66342;SDS011;53144;51.524;5.080;2023-03-01T16:03:04;7.32;;;5.57;;
66342;SDS011;53144;51.524;5.080;2023-03-01T16:08:02;5.47;;;4.13;;
66342;SDS011;53144;51.524;5.080;2023-03-01T16:10:28;6.35;;;4.30;;
66342;SDS011;53144;51.524;5.080;2023-03-01T16:12:54;7.25;;;4.40;;
66342;SDS011;53144;51.524;5.080;2023-03-01T16:17:46;8.00;;;5.00;;
66342;SDS011;53144;51.524;5.080;2023-03-01T16:20:12;7.43;;;5.05;;
66342;SDS011;53144;51.524;5.080;2023-03-01T16:22:40;8.32;;;4.80;;
66342;SDS011;53144;51.524;5.080;2023-03-01T16:25:10;11.73;;;5.18;;
66342;SDS011;53144;51.524;5.080;2023-03-01T16:27:37;8.07;;;5.30;;
66342;SDS011;53144;51.524;5.080;2023-03-01T16:30:02;10.45;;;5.38;;
66342;SDS011;53144;51.524;5.080;2023-03-01T16:32:29;6.90;;;5.20;;
66342;SDS011;53144;51.524;5.080;2023-03-01T16:34:54;5.68;;;5.03;;
66342;SDS011;53144;51.524;5.080;2023-03-01T16:37:19;9.13;;;5.00;;
66342;SDS011;53144;51.524;5.080;2023-03-01T16:39:46;8.98;;;5.80;;
66342;SDS011;53144;51.524;5.080;2023-03-01T16:42:13;8.38;;;5.13;;
66342;SDS011;53144;51.524;5.080;2023-03-01T16:44:39;9.77;;;5.70;;
66342;SDS011;53144;51.524;5.080;2023-03-01T16:47:04;7.83;;;5.23;;
66342;SDS011;53144;51.524;5.080;2023-03-01T16:49:30;9.07;;;4.93;;
66342;SDS011;53144;51.524;5.080;2023-03-01T16:51:55;8.13;;;5.20;;
66342;SDS011;53144;51.524;5.080;2023-03-01T16:54:21;9.23;;;5.45;;
66342;SDS011;53144;51.524;5.080;2023-03-01T16:56:46;8.23;;;5.10;;
66342;SDS011;53144;51.524;5.080;2023-03-01T16:59:11;11.18;;;5.43;;
66342;SDS011;53144;51.524;5.080;2023-03-01T17:01:37;7.90;;;5.22;;
66342;SDS011;53144;51.524;5.080;2023-03-01T17:04:04;8.77;;;5.65;;
66342;SDS011;53144;51.524;5.080;2023-03-01T17:06:29;7.80;;;5.47;;
66342;SDS011;53144;51.524;5.080;2023-03-01T17:08:57;7.25;;;5.00;;
66342;SDS011;53144;51.524;5.080;2023-03-01T17:11:22;7.47;;;5.15;;
66342;SDS011;53144;51.524;5.080;2023-03-01T17:13:48;8.70;;;5.40;;
66342;SDS011;53144;51.524;5.080;2023-03-01T17:16:14;11.38;;;5.82;;
66342;SDS011;53144;51.524;5.080;2023-03-01T17:18:41;10.82;;;5.93;;
66342;SDS011;53144;51.524;5.080;2023-03-01T17:21:07;12.45;;;6.03;;